Time;durP1;ratioP1;P1;durP2;ratioP2;P2;SDS_P1;SDS_P2;PMS_P1;PMS_P2;Temp;Humidity;BMP_temperature;BMP_pressure;BME280_temperature;BME280_humidity;BME280_pressure;Samples;Min_cycle;Max_cycle;Signal;HPM_P1;HPM_P2
2023/03/11 00:01:11;;;;;;;73.28;33.78;;;;;;;12.09;84.56;95748.13;10248179;28;20166;-55
2023/03/11 00:06:10;;;;;;;;;;;;;;;11.86;85.88;95742.06;10248079;28;20030;-55
2023/03/11 00:11:09;;;;;;;13.68;9.82;;;;;;;11.68;86.00;95721.97;10245945;28;19922;-56
2023/03/11 00:16:08;;;;;;;33.13;19.70;;;;;;;11.66;86.26;95722.03;10246779;28;20038;-56
2023/03/11 00:21:13;;;;;;;;;;;;;;;11.59;86.58;95712.75;10252500;28;20070;-56
2023/03/11 00:26:12;;;;;;;10.27;7.25;;;;;;;11.48;87.05;95707.16;10253660;28;20602;-55
2023/03/11 00:31:12;;;;;;;;;;;;;;;11.58;86.51;95690.31;10267991;28;20129;-56
2023/03/11 00:36:32;;;;;;;35.35;19.33;;;;;;;11.72;86.63;95704.53;10261180;28;19954;-55
2023/03/11 00:41:34;;;;;;;44.42;25.77;;;;;;;11.73;86.84;95709.66;10265226;28;20058;-56
2023/03/11 00:46:33;;;;;;;25.27;15.18;;;;;;;11.58;87.17;95744.84;10260455;28;20543;-55
2023/03/11 00:51:32;;;;;;;23.00;13.73;;;;;;;11.49;89.03;95772.94;10261490;28;20569;-55
2023/03/11 00:56:31;;;;;;;23.73;17.80;;;;;;;11.49;89.50;95768.56;10264654;28;20121;-56
2023/03/11 01:01:30;;;;;;;41.58;30.83;;;;;;;11.45;88.59;95759.19;10264815;28;20044;-56
2023/03/11 01:06:29;;;;;;;22.67;14.77;;;;;;;11.61;88.16;95756.88;10276913;28;20057;-55
2023/03/11 01:11:28;;;;;;;31.05;24.75;;;;;;;11.49;86.86;95744.34;10289864;28;20068;-55
2023/03/11 01:16:27;;;;;;;21.80;12.95;;;;;;;11.70;86.65;95748.75;10289157;28;20052;-55
2023/03/11 01:21:26;;;;;;;8.30;4.72;;;;;;;11.76;86.83;95747.66;10290393;28;20038;-55
2023/03/11 01:26:24;;;;;;;7.50;4.80;;;;;;;11.72;86.36;95743.50;10289896;28;20048;-54
2023/03/11 01:31:23;;;;;;;10.73;6.90;;;;;;;11.64;85.88;95756.75;10289892;28;20124;-54
2023/03/11 01:36:22;;;;;;;9.27;5.25;;;;;;;11.63;85.84;95755.06;10282550;28;20090;-54
2023/03/11 01:41:21;;;;;;;18.02;13.02;;;;;;;11.57;86.36;95756.16;10249056;28;20038;-54
2023/03/11 01:46:31;;;;;;;9.05;5.70;;;;;;;11.53;87.89;95732.97;10248678;28;20041;-54
2023/03/11 01:51:34;;;;;;;16.02;10.15;;;;;;;11.30;88.98;95720.81;10269842;28;20070;-54
2023/03/11 01:56:34;;;;;;;13.13;7.95;;;;;;;11.22;89.63;95710.69;10288688;28;20455;-54
2023/03/11 02:01:34;;;;;;;19.02;10.55;;;;;;;11.10;90.30;95711.13;10288862;28;20072;-54
2023/03/11 02:06:34;;;;;;;12.95;9.52;;;;;;;11.16;90.42;95698.78;10287991;28;20133;-54
2023/03/11 02:11:33;;;;;;;;;;;;;;;11.02;90.03;95686.31;10288929;28;20154;-54
2023/03/11 02:16:32;;;;;;;7.57;5.72;;;;;;;11.04;89.89;95681.91;10287787;28;19960;-54
2023/03/11 02:21:31;;;;;;;;;;;;;;;11.01;88.83;95665.59;10286164;28;20081;-54
2023/03/11 02:26:55;;;;;;;6.88;4.82;;;;;;;10.95;87.58;95634.69;10287792;28;20037;-54
2023/03/11 02:31:55;;;;;;;14.88;8.40;;;;;;;11.02;86.94;95656.91;10287354;28;20053;-54
2023/03/11 02:36:55;;;;;;;17.55;9.10;;;;;;;10.94;87.10;95635.56;10275241;28;20061;-54
2023/03/11 02:41:54;;;;;;;28.65;14.90;;;;;;;10.94;86.11;95662.41;10286930;28;20080;-54
2023/03/11 02:46:53;;;;;;;18.42;9.57;;;;;;;11.00;85.68;95689.84;10286801;28;20105;-54
2023/03/11 02:51:52;;;;;;;18.33;9.68;;;;;;;11.07;85.01;95708.66;10286219;28;20061;-54
2023/03/11 02:56:51;;;;;;;3.13;2.80;;;;;;;11.17;83.57;95715.19;10286310;28;20116;-54
2023/03/11 03:01:50;;;;;;;4.85;2.88;;;;;;;11.30;82.96;95726.84;10285815;28;20032;-54
2023/03/11 03:06:49;;;;;;;16.05;9.60;;;;;;;11.39;82.20;95733.47;10286173;28;20034;-54
2023/03/11 03:11:48;;;;;;;4.45;3.03;;;;;;;11.32;83.68;95739.78;10285768;28;20133;-54
2023/03/11 03:16:47;;;;;;;15.05;10.45;;;;;;;11.33;83.00;95746.66;10283999;28;20020;-54
2023/03/11 03:21:46;;;;;;;;;;;;;;;11.32;83.64;95730.25;10285107;28;20092;-54
2023/03/11 03:26:45;;;;;;;15.30;10.10;;;;;;;11.15;79.74;95743.84;10283620;28;20298;-54
2023/03/11 03:31:43;;;;;;;41.85;25.40;;;;;;;11.04;77.30;95744.19;10283885;28;20037;-54
2023/03/11 03:36:42;;;;;;;7.78;4.80;;;;;;;11.24;77.28;95753.88;10273034;28;20033;-54
2023/03/11 03:41:41;;;;;;;;;;;;;;;11.29;78.22;95745.94;10243565;28;20034;-54
2023/03/11 03:46:40;;;;;;;9.90;6.38;;;;;;;11.32;77.66;95738.03;10242921;28;19984;-54
2023/03/11 03:51:39;;;;;;;;;;;;;;;11.41;77.56;95734.25;10243844;28;20035;-54
2023/03/11 03:56:38;;;;;;;4.07;2.88;;;;;;;11.39;78.15;95730.88;10243227;28;19964;-54
2023/03/11 04:01:37;;;;;;;3.55;2.05;;;;;;;11.25;77.62;95728.78;10239146;28;20121;-54
2023/03/11 04:06:36;;;;;;;1.65;1.30;;;;;;;10.95;75.11;95721.16;10242663;28;20022;-54
2023/03/11 04:11:34;;;;;;;2.33;1.40;;;;;;;10.96;77.17;95728.06;10242276;28;20035;-54
2023/03/11 04:16:33;;;;;;;4.40;1.80;;;;;;;11.01;75.75;95720.09;10205895;28;1105649;-54
2023/03/11 04:21:33;;;;;;;1.75;1.38;;;;;;;10.80;75.50;95670.63;10244148;28;20034;-54
2023/03/11 04:26:32;;;;;;;2.45;2.00;;;;;;;11.02;75.60;95717.44;10243608;28;20124;-54
2023/03/11 04:31:31;;;;;;;3.08;1.80;;;;;;;10.89;73.89;95731.75;10243536;28;20036;-54
2023/03/11 04:36:30;;;;;;;2.35;1.23;;;;;;;11.03;72.46;95747.72;10251301;28;20088;-54
2023/03/11 04:41:29;;;;;;;1.20;1.10;;;;;;;11.20;71.82;95741.91;10283486;28;20034;-54
2023/03/11 04:46:28;;;;;;;1.63;1.23;;;;;;;11.22;71.61;95724.53;10283443;28;20030;-54
2023/03/11 04:51:27;;;;;;;0.82;0.82;;;;;;;11.32;69.30;95743.22;10284536;28;20056;-54
2023/03/11 04:56:25;;;;;;;0.90;0.90;;;;;;;11.51;69.65;95739.94;10283206;28;20080;-54
2023/03/11 05:01:24;;;;;;;1.13;1.02;;;;;;;11.63;70.75;95749.88;10282473;28;20395;-55
2023/03/11 05:06:23;;;;;;;2.05;1.40;;;;;;;11.70;70.26;95751.34;10259111;28;20046;-55
2023/03/11 05:11:22;;;;;;;1.77;1.45;;;;;;;11.78;68.81;95764.91;10241869;28;20109;-55
2023/03/11 05:16:21;;;;;;;2.92;2.10;;;;;;;11.86;69.65;95791.44;10248215;28;20044;-55
2023/03/11 05:21:20;;;;;;;3.17;2.10;;;;;;;11.99;68.88;95777.97;10248898;28;20537;-55
2023/03/11 05:26:19;;;;;;;2.33;1.48;;;;;;;11.99;68.04;95788.38;10249524;28;20046;-55
2023/03/11 05:31:18;;;;;;;4.22;2.00;;;;;;;12.05;68.02;95798.53;10249579;28;20126;-55
2023/03/11 05:36:17;;;;;;;4.53;1.95;;;;;;;12.06;66.93;95800.22;10255437;28;20037;-55
2023/03/11 05:41:17;;;;;;;1.17;1.00;;;;;;;11.97;65.88;95779.78;10287528;28;20033;-55
2023/03/11 05:46:16;;;;;;;1.10;1.00;;;;;;;12.03;65.00;95801.19;10250564;28;20752;-55
2023/03/11 05:51:15;;;;;;;;;;;;;;;12.10;65.68;95807.00;10249404;28;20077;-55
2023/03/11 05:56:15;;;;;;;0.80;0.80;;;;;;;12.05;64.36;95808.94;10249031;28;20378;-55
2023/03/11 06:01:16;;;;;;;1.20;1.10;;;;;;;12.11;64.16;95808.72;10248500;28;20069;-55
2023/03/11 06:06:16;;;;;;;1.48;1.38;;;;;;;12.12;62.46;95794.81;10247796;28;20133;-55
2023/03/11 06:11:16;;;;;;;1.25;1.13;;;;;;;12.17;62.16;95807.63;10252775;28;20132;-55
2023/03/11 06:16:15;;;;;;;1.33;1.20;;;;;;;12.20;62.91;95817.91;10247854;28;20066;-55
2023/03/11 06:21:22;;;;;;;2.40;1.42;;;;;;;12.02;62.32;95794.31;10261886;28;20144;-55
2023/03/11 06:26:22;;;;;;;4.05;2.30;;;;;;;12.20;62.54;95815.31;10267402;28;20066;-55
2023/03/11 06:31:26;;;;;;;3.85;2.30;;;;;;;12.29;62.96;95820.19;10248032;28;20070;-55
2023/03/11 06:36:25;;;;;;;3.78;2.17;;;;;;;12.27;62.36;95812.47;10250058;28;20088;-55
2023/03/11 06:41:24;;;;;;;;;;;;;;;12.37;60.82;95825.06;10242111;28;20047;-55
2023/03/11 06:46:23;;;;;;;4.75;2.13;;;;;;;12.39;60.61;95829.34;10243509;28;19918;-55
2023/03/11 06:51:22;;;;;;;;;;;;;;;12.60;60.86;95831.97;10243058;28;20025;-55
2023/03/11 06:56:22;;;;;;;5.50;2.38;;;;;;;12.79;60.31;95832.94;10242570;28;19968;-55
2023/03/11 07:01:23;;;;;;;6.57;2.50;;;;;;;12.96;59.82;95829.66;10242387;28;20065;-55
2023/03/11 07:06:24;;;;;;;1.60;1.13;;;;;;;12.89;58.31;95828.22;10242426;28;20165;-55
2023/03/11 07:11:26;;;;;;;1.50;1.40;;;;;;;13.03;59.46;95831.09;10242319;28;20507;-55
2023/03/11 07:16:28;;;;;;;1.42;1.33;;;;;;;13.29;58.71;95810.91;10281052;28;20081;-55
2023/03/11 07:21:28;;;;;;;2.63;1.27;;;;;;;13.80;58.92;95801.75;10282109;28;20096;-55
2023/03/11 07:26:29;;;;;;;2.70;1.90;;;;;;;14.01;56.49;95801.66;10241277;28;20127;-55
2023/03/11 07:31:31;;;;;;;2.05;1.60;;;;;;;14.09;56.23;95802.19;10281033;28;20069;-56
2023/03/11 07:36:30;;;;;;;3.22;1.70;;;;;;;13.73;55.00;95780.31;10272571;28;20065;-55
2023/03/11 07:41:31;;;;;;;2.40;1.55;;;;;;;13.99;55.63;95794.78;10279619;28;20076;-55
2023/03/11 07:46:31;;;;;;;1.92;1.67;;;;;;;14.11;54.75;95795.97;10281710;28;20073;-55
2023/03/11 07:51:32;;;;;;;1.80;1.50;;;;;;;13.49;54.63;95719.69;10280606;28;20073;-56
2023/03/11 07:56:33;;;;;;;2.00;1.23;;;;;;;13.50;54.00;95770.06;10240864;28;20520;-55
2023/03/11 08:01:39;;;;;;;3.00;1.83;;;;;;;13.69;54.63;95764.88;10240618;28;20558;-55
2023/03/11 08:06:40;;;;;;;1.50;0.88;;;;;;;13.16;53.69;95714.22;10241476;28;20611;-56
2023/03/11 08:11:40;;;;;;;1.08;1.02;;;;;;;13.49;53.63;95742.28;10240288;28;20070;-55
2023/03/11 08:16:39;;;;;;;1.65;1.30;;;;;;;13.29;54.57;95642.44;10242160;28;20078;-55
2023/03/11 08:21:39;;;;;;;2.20;1.40;;;;;;;13.25;53.76;95596.59;10240353;28;20082;-55
2023/03/11 08:26:38;;;;;;;1.92;1.40;;;;;;;14.18;51.88;95724.34;10239980;28;20109;-54
2023/03/11 08:31:37;;;;;;;1.83;1.27;;;;;;;14.26;51.92;95684.81;10240146;28;20516;-54
2023/03/11 08:36:36;;;;;;;2.13;1.50;;;;;;;14.66;52.31;95688.06;10249150;28;20104;-54
2023/03/11 08:41:35;;;;;;;;;;;;;;;14.76;50.88;95701.56;10281154;28;20149;-54
2023/03/11 08:46:36;;;;;;;4.63;2.00;;;;;;;15.02;50.75;95690.59;10279660;28;20017;-54
2023/03/11 08:51:36;;;;;;;2.17;1.73;;;;;;;14.87;49.35;95685.31;10286879;28;20073;-55
2023/03/11 08:56:35;;;;;;;1.95;1.40;;;;;;;14.53;48.79;95700.91;10287392;28;20061;-55
2023/03/11 09:01:34;;;;;;;;;;;;;;;14.42;49.45;95684.91;10288063;28;20030;-55
2023/03/11 09:06:33;;;;;;;3.47;1.30;;;;;;;14.65;48.77;95655.06;10287125;28;19917;-55
2023/03/11 09:11:32;;;;;;;4.22;1.67;;;;;;;14.75;48.65;95671.13;10287005;28;20472;-55
2023/03/11 09:16:31;;;;;;;;;;;;;;;15.03;48.31;95676.63;10286800;28;20602;-55
2023/03/11 09:21:30;;;;;;;1.37;1.20;;;;;;;15.15;47.04;95688.19;10286922;28;20387;-55
2023/03/11 09:26:29;;;;;;;;;;;;;;;15.24;47.29;95686.88;10286435;28;20034;-55
2023/03/11 09:31:28;;;;;;;3.73;1.77;;;;;;;15.41;47.04;95678.13;10286157;28;19963;-55
2023/03/11 09:36:26;;;;;;;;;;;;;;;15.28;45.66;95674.50;10278357;28;20041;-55
2023/03/11 09:41:40;;;;;;;4.13;1.17;;;;;;;15.00;46.60;95670.72;10246190;28;20336;-55
2023/03/11 09:46:45;;;;;;;1.42;1.20;;;;;;;15.04;46.15;95661.81;10285330;28;20496;-56
2023/03/11 09:51:56;;;;;;;7.72;2.15;;;;;;;15.50;46.28;95672.41;10285093;28;20065;-56
2023/03/11 09:56:55;;;;;;;4.47;1.80;;;;;;;15.72;45.66;95676.50;10284461;28;20084;-54
2023/03/11 10:01:55;;;;;;;8.55;3.20;;;;;;;15.66;45.18;95673.25;10285161;28;20068;-55
2023/03/11 10:06:56;;;;;;;5.53;1.80;;;;;;;15.22;45.45;95676.53;10285311;28;20088;-55
2023/03/11 10:12:06;;;;;;;1.95;1.25;;;;;;;15.28;44.71;95669.28;10283472;28;20065;-55
2023/03/11 10:17:24;;;;;;;3.47;1.70;;;;;;;15.07;44.03;95660.81;10283775;28;20049;-55
2023/03/11 10:22:40;;;;;;;5.05;2.05;;;;;;;15.22;44.10;95655.63;10284363;28;20069;-55
2023/03/11 10:27:47;;;;;;;4.88;2.13;;;;;;;15.51;43.22;95647.97;10283836;28;20109;-55
2023/03/11 10:33:18;;;;;;;3.05;1.38;;;;;;;15.52;42.65;95654.88;10284375;28;20076;-55
2023/03/11 10:38:30;;;;;;;2.05;1.40;;;;;;;15.83;42.70;95641.00;10256272;28;20072;-55
2023/03/11 10:43:43;;;;;;;5.15;1.80;;;;;;;15.95;42.08;95613.31;10283319;28;20077;-56
2023/03/11 10:48:42;;;;;;;4.55;1.70;;;;;;;16.27;40.47;95631.56;10256146;28;20121;-56
2023/03/11 10:54:25;;;;;;;6.03;1.83;;;;;;;16.75;41.76;95637.47;10259105;28;20074;-56
2023/03/11 10:59:31;;;;;;;7.43;2.15;;;;;;;16.98;38.47;95622.19;10258405;28;20495;-56
2023/03/11 11:04:35;;;;;;;6.80;2.78;;;;;;;17.26;37.39;95614.34;10257626;28;20168;-56
2023/03/11 11:09:34;;;;;;;7.90;3.30;;;;;;;17.29;36.58;95611.50;10252584;28;20128;-56
2023/03/11 11:14:48;;;;;;;3.03;1.50;;;;;;;17.64;35.71;95595.34;10256666;28;20108;-56
2023/03/11 11:19:49;;;;;;;2.97;1.70;;;;;;;17.82;35.34;95550.53;10218775;28;20524;-57
2023/03/11 11:24:50;;;;;;;2.83;1.60;;;;;;;18.25;36.04;95566.09;10213519;28;20089;-56
2023/03/11 11:30:07;;;;;;;1.55;1.45;;;;;;;18.89;34.33;95572.25;10210315;28;20113;-56
2023/03/11 11:35:11;;;;;;;3.55;1.55;;;;;;;18.93;33.68;95576.34;10214558;28;20085;-56
2023/03/11 11:40:13;;;;;;;4.30;1.65;;;;;;;18.93;34.19;95572.88;10212753;28;20105;-56
2023/03/11 11:45:21;;;;;;;4.22;1.80;;;;;;;18.46;36.21;95576.94;10208169;28;20140;-56
2023/03/11 11:50:31;;;;;;;2.22;1.55;;;;;;;18.18;36.69;95576.97;10218419;28;20147;-56
2023/03/11 11:55:32;;;;;;;4.40;1.52;;;;;;;18.22;37.26;95567.09;10202207;28;20119;-56
2023/03/11 12:00:40;;;;;;;2.03;1.60;;;;;;;17.27;37.25;95363.53;10199831;28;20129;-56
2023/03/11 12:05:50;;;;;;;3.28;1.90;;;;;;;18.44;35.83;95563.91;10238322;28;20100;-57
2023/03/11 12:10:58;;;;;;;4.57;1.80;;;;;;;18.53;36.99;95551.94;10240277;28;20348;-56
2023/03/11 12:16:36;;;;;;;2.85;2.00;;;;;;;18.70;36.45;95572.66;10240218;28;20189;-57
2023/03/11 12:22:03;;;;;;;2.78;1.58;;;;;;;18.12;34.26;95574.75;10240119;28;20113;-57
2023/03/11 12:27:13;;;;;;;3.03;2.13;;;;;;;18.17;35.92;95572.69;10247345;28;20109;-57
2023/03/11 12:32:29;;;;;;;3.08;2.00;;;;;;;18.61;35.88;95581.97;10247959;28;20070;-57
2023/03/11 12:37:28;;;;;;;4.85;2.05;;;;;;;17.89;35.70;95592.00;10231848;28;20096;-56
2023/03/11 12:42:39;;;;;;;3.58;1.80;;;;;;;17.11;37.82;95599.53;10207131;28;20117;-56
2023/03/11 12:47:38;;;;;;;2.88;1.88;;;;;;;15.97;39.73;95624.53;10245799;28;20149;-56
2023/03/11 12:52:51;;;;;;;3.22;1.42;;;;;;;15.54;41.70;95624.28;10246747;28;20104;-56
2023/03/11 12:58:15;;;;;;;4.68;2.00;;;;;;;15.65;43.03;95580.09;10247829;28;20076;-56
2023/03/11 13:03:41;;;;;;;5.20;2.22;;;;;;;16.04;42.47;95610.19;10246976;28;20502;-56
2023/03/11 13:08:48;;;;;;;1.90;1.80;;;;;;;16.02;41.60;95614.66;10246830;28;20118;-56
2023/03/11 13:13:47;;;;;;;2.88;1.90;;;;;;;15.95;42.23;95623.78;10246313;28;20077;-56
2023/03/11 13:18:48;;;;;;;1.92;1.60;;;;;;;16.40;41.56;95619.47;10245557;28;20033;-56
2023/03/11 13:23:47;;;;;;;4.75;2.10;;;;;;;16.81;40.68;95634.50;10245985;28;20080;-56
2023/03/11 13:29:07;;;;;;;4.55;2.38;;;;;;;17.16;40.83;95655.13;10245686;28;20105;-56
2023/03/11 13:34:53;;;;;;;2.90;1.90;;;;;;;17.18;41.06;95666.38;10245387;28;20054;-56
2023/03/11 13:40:04;;;;;;;4.85;2.80;;;;;;;17.22;41.73;95670.50;10209698;28;20121;-56
2023/03/11 13:45:18;;;;;;;5.03;2.60;;;;;;;17.13;41.40;95684.16;10214518;28;20132;-56
2023/03/11 13:50:27;;;;;;;4.03;1.92;;;;;;;17.00;40.32;95681.41;10205555;28;20813;-56
2023/03/11 13:55:26;;;;;;;4.90;2.60;;;;;;;16.87;41.56;95699.66;10223614;28;20082;-56
2023/03/11 14:00:28;;;;;;;2.88;1.75;;;;;;;16.66;41.46;95706.13;10208478;28;20051;-56
2023/03/11 14:05:34;;;;;;;2.38;1.63;;;;;;;16.21;43.15;95723.53;10216020;28;20073;-55
2023/03/11 14:10:33;;;;;;;5.93;3.35;;;;;;;16.02;44.48;95729.78;10207176;28;20073;-57
2023/03/11 14:15:42;;;;;;;5.65;2.65;;;;;;;15.55;45.40;95738.38;10215261;28;20050;-54
2023/03/11 14:20:47;;;;;;;3.88;1.98;;;;;;;15.18;46.11;95740.31;10213445;28;20535;-55
2023/03/11 14:25:46;;;;;;;4.30;2.40;;;;;;;14.85;46.48;95752.44;10220158;28;20130;-55
2023/03/11 14:30:59;;;;;;;3.28;2.40;;;;;;;14.61;47.41;95764.00;10206457;28;20105;-55
2023/03/11 14:36:02;;;;;;;4.72;2.85;;;;;;;14.54;47.82;95762.59;10216313;28;20568;-55
2023/03/11 14:41:04;;;;;;;5.03;2.38;;;;;;;14.44;48.29;95777.03;10209106;28;20383;-55
2023/03/11 14:46:06;;;;;;;3.72;2.25;;;;;;;14.29;48.99;95781.22;10206923;28;20074;-55
2023/03/11 14:51:16;;;;;;;3.78;2.47;;;;;;;14.13;49.34;95795.91;10205849;28;20125;-55
2023/03/11 14:56:20;;;;;;;3.03;1.90;;;;;;;14.16;49.35;95814.00;10214493;28;20497;-55
2023/03/11 15:01:25;;;;;;;4.07;2.08;;;;;;;13.75;50.08;95777.66;10205339;28;20610;-55
2023/03/11 15:06:29;;;;;;;2.70;2.20;;;;;;;14.01;50.05;95843.38;10202054;28;20133;-55
2023/03/11 15:11:28;;;;;;;7.53;4.18;;;;;;;12.69;54.95;95821.19;10189661;28;20676;-55
2023/03/11 15:16:33;;;;;;;10.30;6.53;;;;;;;12.56;57.76;95888.50;10212937;28;20491;-55
2023/03/11 15:21:32;;;;;;;9.10;6.68;;;;;;;11.74;58.20;95908.84;10199620;28;20134;-55
2023/03/11 15:26:33;;;;;;;;;;;;;;;11.21;58.35;95927.94;10212691;28;20026;-55
2023/03/11 15:31:37;;;;;;;9.18;4.75;;;;;;;10.82;58.72;95937.81;10206401;28;19961;-55
2023/03/11 15:36:39;;;;;;;7.70;4.47;;;;;;;10.77;61.06;95934.50;10221502;28;20066;-55
2023/03/11 15:41:42;;;;;;;7.82;4.40;;;;;;;10.55;64.14;95940.34;10186895;28;20523;-55
2023/03/11 15:46:40;;;;;;;9.13;5.07;;;;;;;9.92;66.57;95980.19;10211705;28;20134;-55
2023/03/11 15:51:39;;;;;;;9.15;4.55;;;;;;;9.78;67.02;96004.69;10204962;28;20143;-55
2023/03/11 15:56:39;;;;;;;7.20;4.50;;;;;;;9.77;65.15;96018.56;10213836;28;20110;-55
2023/03/11 16:01:38;;;;;;;12.32;5.20;;;;;;;10.09;62.72;96050.53;10201530;28;20165;-56
2023/03/11 16:06:37;;;;;;;8.80;4.22;;;;;;;9.95;60.61;96058.66;10213429;28;20121;-54
2023/03/11 16:11:37;;;;;;;5.28;3.03;;;;;;;9.75;59.01;96061.78;10203387;28;20129;-54
2023/03/11 16:16:37;;;;;;;10.55;5.30;;;;;;;9.67;58.01;96094.78;10220762;28;20166;-54
2023/03/11 16:21:41;;;;;;;9.57;4.82;;;;;;;9.52;57.07;96114.13;10208838;28;20611;-55
2023/03/11 16:26:40;;;;;;;6.90;4.15;;;;;;;9.59;56.30;96119.16;10208265;28;20465;-55
2023/03/11 16:31:40;;;;;;;8.10;4.25;;;;;;;9.72;56.52;96134.38;10210684;28;20031;-55
2023/03/11 16:36:39;;;;;;;4.97;3.42;;;;;;;9.01;58.59;96079.88;10218929;28;20122;-55
2023/03/11 16:41:43;;;;;;;8.57;5.50;;;;;;;9.33;59.42;96156.84;10201874;28;20121;-55
2023/03/11 16:46:42;;;;;;;8.50;5.57;;;;;;;9.15;60.34;96182.19;10215199;28;20530;-55
2023/03/11 16:51:41;;;;;;;26.85;15.38;;;;;;;7.81;61.88;96018.50;10201796;28;20970;-55
2023/03/11 16:56:40;;;;;;;13.65;7.43;;;;;;;8.52;63.13;96198.06;10209813;28;20523;-55
2023/03/11 17:01:39;;;;;;;6.25;4.85;;;;;;;8.36;63.32;96212.16;10201396;28;20133;-55
2023/03/11 17:06:39;;;;;;;8.32;4.65;;;;;;;8.12;64.65;96227.19;10209433;28;20027;-56
2023/03/11 17:11:38;;;;;;;9.88;5.05;;;;;;;8.06;63.93;96250.53;10208540;28;20062;-55
2023/03/11 17:16:36;;;;;;;8.32;5.13;;;;;;;8.04;62.83;96262.63;10215730;28;20130;-55
2023/03/11 17:21:36;;;;;;;7.47;3.85;;;;;;;7.80;62.25;96222.50;10211208;28;20041;-55
2023/03/11 17:26:35;;;;;;;7.20;3.80;;;;;;;8.07;61.86;96276.34;10215875;28;20074;-55
2023/03/11 17:31:34;;;;;;;8.35;5.10;;;;;;;8.19;61.41;96287.38;10219665;28;20125;-55
2023/03/11 17:36:33;;;;;;;10.75;5.45;;;;;;;8.24;63.13;96306.25;10209282;28;20114;-55
2023/03/11 17:41:32;;;;;;;11.35;6.63;;;;;;;8.40;63.71;96322.38;10212511;28;20109;-55
2023/03/11 17:46:32;;;;;;;20.38;12.38;;;;;;;8.44;66.86;96342.97;10218321;28;20149;-56
2023/03/11 17:51:31;;;;;;;30.67;16.42;;;;;;;8.36;69.11;96341.38;10213549;28;20113;-54
2023/03/11 17:56:30;;;;;;;23.42;14.63;;;;;;;8.23;68.77;96351.06;10212497;28;20118;-55
2023/03/11 18:01:30;;;;;;;13.02;8.43;;;;;;;8.16;69.85;96359.78;10207996;28;20027;-55
2023/03/11 18:06:29;;;;;;;10.90;6.43;;;;;;;8.08;69.82;96358.16;10215783;28;20149;-56
2023/03/11 18:11:28;;;;;;;11.30;6.63;;;;;;;7.88;70.78;96378.22;10206037;28;20122;-56
2023/03/11 18:16:30;;;;;;;10.05;6.80;;;;;;;7.79;72.04;96381.75;10203692;28;20527;-56
2023/03/11 18:21:30;;;;;;;21.13;13.40;;;;;;;7.71;73.17;96374.97;10213967;28;20449;-55
2023/03/11 18:26:29;;;;;;;16.58;9.77;;;;;;;7.40;74.85;96393.38;10216671;28;20063;-56
2023/03/11 18:31:29;;;;;;;19.92;10.70;;;;;;;7.38;74.82;96400.25;10216935;28;20123;-56
2023/03/11 18:36:31;;;;;;;23.75;13.95;;;;;;;7.30;76.06;96397.75;10210390;28;20194;-55
2023/03/11 18:41:32;;;;;;;11.35;7.53;;;;;;;7.39;75.46;96412.31;10210334;28;20066;-55
2023/03/11 18:46:32;;;;;;;13.02;9.70;;;;;;;7.52;74.82;96408.78;10208949;28;20125;-56
2023/03/11 18:51:31;;;;;;;11.18;7.20;;;;;;;7.48;75.53;96407.09;10211587;28;20134;-55
2023/03/11 18:56:30;;;;;;;9.82;6.32;;;;;;;7.55;75.36;96408.72;10217400;28;20117;-55
2023/03/11 19:01:29;;;;;;;12.43;7.28;;;;;;;7.51;75.39;96422.53;10206985;28;20141;-56
2023/03/11 19:06:28;;;;;;;10.50;5.70;;;;;;;7.53;75.71;96444.03;10213292;28;20046;-57
2023/03/11 19:11:27;;;;;;;9.02;5.82;;;;;;;7.52;75.43;96442.31;10206087;28;20588;-56
2023/03/11 19:16:26;;;;;;;10.43;6.03;;;;;;;7.46;75.57;96426.88;10211268;28;20137;-55
2023/03/11 19:21:26;;;;;;;12.23;8.23;;;;;;;7.75;75.87;96467.03;10216351;28;20483;-56
2023/03/11 19:26:25;;;;;;;19.67;13.00;;;;;;;7.71;75.60;96461.06;10210883;28;20452;-54
2023/03/11 19:31:24;;;;;;;18.75;12.88;;;;;;;7.74;75.71;96473.94;10200544;28;20504;-54
2023/03/11 19:36:23;;;;;;;16.55;11.77;;;;;;;7.70;76.12;96494.63;10210284;28;20046;-54
2023/03/11 19:41:22;;;;;;;20.20;13.13;;;;;;;7.26;77.28;96504.44;10206542;28;20026;-54
2023/03/11 19:46:22;;;;;;;19.90;12.57;;;;;;;7.02;76.68;96479.69;10241400;28;20535;-54
2023/03/11 19:51:21;;;;;;;22.17;15.55;;;;;;;6.73;77.12;96472.19;10245666;28;20073;-54
2023/03/11 19:56:20;;;;;;;29.58;20.77;;;;;;;6.68;77.91;96531.50;10253612;28;20510;-54
2023/03/11 20:01:20;;;;;;;22.23;13.57;;;;;;;6.44;79.32;96540.19;10243855;28;20429;-55
2023/03/11 20:06:21;;;;;;;24.10;15.05;;;;;;;6.52;79.10;96561.66;10242622;28;20130;-55
2023/03/11 20:11:20;;;;;;;13.80;8.48;;;;;;;6.38;79.14;96558.28;10246248;28;20069;-55
2023/03/11 20:16:19;;;;;;;29.52;10.43;;;;;;;6.29;79.23;96569.47;10252029;28;20061;-56
2023/03/11 20:21:18;;;;;;;13.77;8.85;;;;;;;6.42;78.26;96575.41;10244009;28;20045;-56
2023/03/11 20:26:17;;;;;;;8.60;6.10;;;;;;;6.03;78.30;96502.56;10252366;28;20141;-54
2023/03/11 20:31:20;;;;;;;11.50;7.18;;;;;;;6.54;79.56;96588.28;10244482;28;20569;-55
2023/03/11 20:36:22;;;;;;;16.77;10.85;;;;;;;6.66;79.74;96608.00;10244231;28;20068;-55
2023/03/11 20:41:22;;;;;;;15.23;11.73;;;;;;;6.72;79.95;96602.78;10245169;28;20084;-54
2023/03/11 20:46:22;;;;;;;22.13;14.30;;;;;;;6.73;79.29;96596.78;10256002;28;20084;-54
2023/03/11 20:51:23;;;;;;;;;;;;;;;6.70;79.80;96616.53;10250607;28;20757;-54
2023/03/11 20:56:24;;;;;;;23.65;16.00;;;;;;;6.71;79.22;96626.88;10258206;28;19945;-55
2023/03/11 21:01:30;;;;;;;16.73;11.07;;;;;;;6.43;79.63;96643.28;10251566;28;20065;-55
2023/03/11 21:06:32;;;;;;;15.65;11.07;;;;;;;6.57;79.53;96633.78;10258006;28;20495;-55
2023/03/11 21:11:31;;;;;;;15.52;10.02;;;;;;;6.35;79.33;96639.00;10251694;28;20126;-55
2023/03/11 21:16:30;;;;;;;20.73;13.57;;;;;;;6.25;78.66;96654.47;10256234;28;20084;-56
2023/03/11 21:21:30;;;;;;;19.27;8.43;;;;;;;6.28;76.86;96650.19;10251746;28;20037;-54
2023/03/11 21:26:28;;;;;;;12.93;7.78;;;;;;;6.21;74.83;96652.75;10256389;28;20138;-57
2023/03/11 21:31:28;;;;;;;21.70;12.40;;;;;;;5.97;72.29;96654.50;10248314;28;20042;-54
2023/03/11 21:36:28;;;;;;;14.65;7.80;;;;;;;5.77;68.63;96621.06;10247848;28;20062;-55
2023/03/11 21:41:27;;;;;;;12.05;5.47;;;;;;;5.86;64.07;96646.81;10251821;28;20109;-54
2023/03/11 21:46:28;;;;;;;7.40;3.80;;;;;;;5.85;60.81;96657.09;10255660;28;20121;-55
2023/03/11 21:51:28;;;;;;;15.73;8.90;;;;;;;5.76;61.72;96643.34;10253158;28;20085;-55
2023/03/11 21:56:27;;;;;;;;;;;;;;;5.86;57.62;96667.41;10264993;28;20076;-54
2023/03/11 22:01:26;;;;;;;16.13;7.73;;;;;;;5.77;58.94;96662.25;10250343;28;19952;-55
2023/03/11 22:06:25;;;;;;;16.08;9.40;;;;;;;5.61;61.45;96666.53;10254512;28;20120;-54
2023/03/11 22:11:24;;;;;;;;;;;;;;;5.52;63.77;96662.22;10253468;28;20511;-54
2023/03/11 22:16:24;;;;;;;17.88;9.18;;;;;;;5.51;64.52;96675.94;10250880;28;20442;-54
2023/03/11 22:21:22;;;;;;;21.45;10.60;;;;;;;5.33;67.72;96670.78;10254011;28;20069;-54
2023/03/11 22:26:21;;;;;;;14.88;8.75;;;;;;;5.19;67.94;96626.16;10250894;28;20036;-54
2023/03/11 22:31:20;;;;;;;13.95;7.72;;;;;;;5.23;69.51;96666.47;10253950;28;20046;-54
2023/03/11 22:36:19;;;;;;;12.68;6.30;;;;;;;5.18;69.70;96686.16;10250701;28;20360;-54
2023/03/11 22:41:19;;;;;;;10.35;6.18;;;;;;;5.20;69.07;96687.03;10252062;28;20029;-54
2023/03/11 22:46:18;;;;;;;13.30;7.03;;;;;;;5.20;69.50;96690.44;10243042;28;20057;-54
2023/03/11 22:51:17;;;;;;;15.48;8.13;;;;;;;4.79;69.27;96623.44;10246371;28;21140;-54
2023/03/11 22:56:16;;;;;;;;;;;;;;;5.03;69.98;96687.81;10246357;28;20156;-54
2023/03/11 23:01:15;;;;;;;14.52;8.13;;;;;;;4.93;68.85;96702.31;10253317;28;20000;-54
2023/03/11 23:06:15;;;;;;;;;;;;;;;4.63;69.30;96703.03;10245151;28;20719;-54
2023/03/11 23:11:16;;;;;;;9.13;5.97;;;;;;;4.58;68.87;96715.00;10252710;28;20036;-54
2023/03/11 23:16:20;;;;;;;14.77;8.30;;;;;;;4.55;69.37;96719.25;10246251;28;20156;-55
2023/03/11 23:21:30;;;;;;;17.15;8.40;;;;;;;4.52;69.02;96722.66;10244930;28;20133;-54
2023/03/11 23:26:31;;;;;;;15.68;7.13;;;;;;;4.47;68.77;96738.03;10278377;28;20129;-54
2023/03/11 23:31:30;;;;;;;13.75;5.25;;;;;;;4.38;68.90;96737.13;10253202;28;20113;-54